Kasimov, Russia
Current Conditions -  °F | °C
As of 5:00 PM on Wednesday 28 Jan 2015 (Local Time) from UWGG Reporting Station
Overcast Overcast  
Wind Chill:   Ceiling: 10000
Heat Index: 18°   Visibility: 6mi
Dew Point: 12°   Wind: 7mph
Humidity: 79%   Direction: 180°S
Pressure: 30"   Gusts: NA
Location:  54.94°N, 41.39°E
Report Text: UWGG 281400Z 18003MPS 9999 SCT016 OVC100 M08/M11 Q1016 NOSIG18820045 RMK QFE755
Loading
Personal Weather Stations






























Interactive Weather Map New forecast layout! Learn more

10-Day Weather Forecast

Advertisements
Track Severe Weather on mobile